sensor_id;sensor_type;location;lat;lon;timestamp;P1;durP1;ratioP1;P2;durP2;ratioP2
8419;SDS011;4247;48.550;8.822;2022-12-18T00:02:24;19.93;;;11.53;;
8419;SDS011;4247;48.550;8.822;2022-12-18T00:04:51;22.00;;;12.70;;
8419;SDS011;4247;48.550;8.822;2022-12-18T00:07:18;27.40;;;14.80;;
8419;SDS011;4247;48.550;8.822;2022-12-18T00:09:45;30.17;;;15.40;;
8419;SDS011;4247;48.550;8.822;2022-12-18T00:12:12;21.50;;;12.70;;
8419;SDS011;4247;48.550;8.822;2022-12-18T00:14:40;27.47;;;16.80;;
8419;SDS011;4247;48.550;8.822;2022-12-18T00:17:10;25.27;;;12.63;;
8419;SDS011;4247;48.550;8.822;2022-12-18T00:19:39;25.10;;;12.87;;
8419;SDS011;4247;48.550;8.822;2022-12-18T00:22:06;20.80;;;11.43;;
8419;SDS011;4247;48.550;8.822;2022-12-18T00:24:33;23.53;;;9.80;;
8419;SDS011;4247;48.550;8.822;2022-12-18T00:27:00;24.83;;;11.03;;
8419;SDS011;4247;48.550;8.822;2022-12-18T00:29:27;14.83;;;9.67;;
8419;SDS011;4247;48.550;8.822;2022-12-18T00:31:55;20.10;;;11.77;;
8419;SDS011;4247;48.550;8.822;2022-12-18T00:34:22;23.53;;;12.50;;
8419;SDS011;4247;48.550;8.822;2022-12-18T00:36:49;29.17;;;10.50;;
8419;SDS011;4247;48.550;8.822;2022-12-18T00:39:16;26.33;;;14.63;;
8419;SDS011;4247;48.550;8.822;2022-12-18T00:41:43;24.43;;;11.37;;
8419;SDS011;4247;48.550;8.822;2022-12-18T00:44:27;23.03;;;10.93;;
8419;SDS011;4247;48.550;8.822;2022-12-18T00:46:55;17.17;;;10.50;;
8419;SDS011;4247;48.550;8.822;2022-12-18T00:49:22;16.47;;;11.90;;
8419;SDS011;4247;48.550;8.822;2022-12-18T00:51:49;27.23;;;11.53;;
8419;SDS011;4247;48.550;8.822;2022-12-18T00:54:16;24.23;;;9.60;;
8419;SDS011;4247;48.550;8.822;2022-12-18T00:56:43;19.97;;;10.73;;
8419;SDS011;4247;48.550;8.822;2022-12-18T00:59:10;17.23;;;10.37;;
8419;SDS011;4247;48.550;8.822;2022-12-18T01:01:37;22.07;;;11.87;;
8419;SDS011;4247;48.550;8.822;2022-12-18T01:04:05;17.87;;;9.03;;
8419;SDS011;4247;48.550;8.822;2022-12-18T01:06:32;18.20;;;8.97;;
8419;SDS011;4247;48.550;8.822;2022-12-18T01:08:59;12.80;;;8.53;;
8419;SDS011;4247;48.550;8.822;2022-12-18T01:11:26;18.30;;;9.63;;
8419;SDS011;4247;48.550;8.822;2022-12-18T01:13:53;19.97;;;9.70;;
8419;SDS011;4247;48.550;8.822;2022-12-18T01:16:20;11.30;;;6.80;;
8419;SDS011;4247;48.550;8.822;2022-12-18T01:18:51;17.20;;;8.77;;
8419;SDS011;4247;48.550;8.822;2022-12-18T01:21:20;18.47;;;10.47;;
8419;SDS011;4247;48.550;8.822;2022-12-18T01:23:51;23.37;;;9.83;;
8419;SDS011;4247;48.550;8.822;2022-12-18T01:26:20;12.80;;;7.53;;
8419;SDS011;4247;48.550;8.822;2022-12-18T01:28:47;12.87;;;6.93;;
8419;SDS011;4247;48.550;8.822;2022-12-18T01:31:16;24.10;;;10.17;;
8419;SDS011;4247;48.550;8.822;2022-12-18T01:33:46;20.57;;;10.80;;
8419;SDS011;4247;48.550;8.822;2022-12-18T01:36:21;17.60;;;9.17;;
8419;SDS011;4247;48.550;8.822;2022-12-18T01:38:49;27.83;;;13.53;;
8419;SDS011;4247;48.550;8.822;2022-12-18T01:41:21;16.27;;;9.53;;
8419;SDS011;4247;48.550;8.822;2022-12-18T01:43:53;15.17;;;9.93;;
8419;SDS011;4247;48.550;8.822;2022-12-18T01:46:25;9.00;;;7.67;;
8419;SDS011;4247;48.550;8.822;2022-12-18T01:48:53;16.83;;;9.63;;
8419;SDS011;4247;48.550;8.822;2022-12-18T01:51:25;10.37;;;7.93;;
8419;SDS011;4247;48.550;8.822;2022-12-18T01:53:53;11.27;;;7.77;;
8419;SDS011;4247;48.550;8.822;2022-12-18T01:56:21;13.93;;;8.20;;
8419;SDS011;4247;48.550;8.822;2022-12-18T01:58:50;14.13;;;8.33;;
8419;SDS011;4247;48.550;8.822;2022-12-18T02:01:24;16.43;;;9.77;;
8419;SDS011;4247;48.550;8.822;2022-12-18T02:03:53;17.77;;;10.20;;
8419;SDS011;4247;48.550;8.822;2022-12-18T02:06:20;15.80;;;10.73;;
8419;SDS011;4247;48.550;8.822;2022-12-18T02:08:58;30.87;;;13.67;;
8419;SDS011;4247;48.550;8.822;2022-12-18T02:11:37;19.30;;;10.20;;
8419;SDS011;4247;48.550;8.822;2022-12-18T02:14:17;20.07;;;10.43;;
8419;SDS011;4247;48.550;8.822;2022-12-18T02:16:51;22.20;;;12.13;;
8419;SDS011;4247;48.550;8.822;2022-12-18T02:19:37;16.97;;;12.10;;
8419;SDS011;4247;48.550;8.822;2022-12-18T02:22:16;20.93;;;11.70;;
8419;SDS011;4247;48.550;8.822;2022-12-18T02:25:00;22.13;;;10.40;;
8419;SDS011;4247;48.550;8.822;2022-12-18T02:27:38;23.63;;;11.87;;
8419;SDS011;4247;48.550;8.822;2022-12-18T02:30:06;21.07;;;12.63;;
8419;SDS011;4247;48.550;8.822;2022-12-18T02:32:36;23.87;;;11.20;;
8419;SDS011;4247;48.550;8.822;2022-12-18T02:35:11;17.67;;;11.43;;
8419;SDS011;4247;48.550;8.822;2022-12-18T02:37:42;21.57;;;11.57;;
8419;SDS011;4247;48.550;8.822;2022-12-18T02:40:11;13.83;;;9.20;;
8419;SDS011;4247;48.550;8.822;2022-12-18T02:42:44;17.07;;;9.17;;
8419;SDS011;4247;48.550;8.822;2022-12-18T02:45:13;18.03;;;9.37;;
8419;SDS011;4247;48.550;8.822;2022-12-18T02:47:42;21.93;;;9.50;;
8419;SDS011;4247;48.550;8.822;2022-12-18T02:50:13;15.60;;;8.67;;
8419;SDS011;4247;48.550;8.822;2022-12-18T02:52:47;23.10;;;9.63;;
8419;SDS011;4247;48.550;8.822;2022-12-18T02:55:25;16.57;;;8.17;;
8419;SDS011;4247;48.550;8.822;2022-12-18T02:57:58;15.17;;;7.47;;
8419;SDS011;4247;48.550;8.822;2022-12-18T03:00:35;30.53;;;10.23;;
8419;SDS011;4247;48.550;8.822;2022-12-18T03:03:09;16.53;;;8.47;;
8419;SDS011;4247;48.550;8.822;2022-12-18T03:05:43;17.60;;;9.53;;
8419;SDS011;4247;48.550;8.822;2022-12-18T03:08:14;15.37;;;8.80;;
8419;SDS011;4247;48.550;8.822;2022-12-18T03:10:49;28.00;;;8.93;;
8419;SDS011;4247;48.550;8.822;2022-12-18T03:13:22;19.27;;;7.73;;
8419;SDS011;4247;48.550;8.822;2022-12-18T03:15:54;18.27;;;7.90;;
8419;SDS011;4247;48.550;8.822;2022-12-18T03:18:23;22.30;;;10.57;;
8419;SDS011;4247;48.550;8.822;2022-12-18T03:20:54;22.83;;;8.20;;
8419;SDS011;4247;48.550;8.822;2022-12-18T03:23:24;22.40;;;10.30;;
8419;SDS011;4247;48.550;8.822;2022-12-18T03:25:57;25.67;;;11.07;;
8419;SDS011;4247;48.550;8.822;2022-12-18T03:28:31;15.87;;;9.70;;
8419;SDS011;4247;48.550;8.822;2022-12-18T03:31:03;22.47;;;10.43;;
8419;SDS011;4247;48.550;8.822;2022-12-18T03:33:34;21.17;;;9.80;;
8419;SDS011;4247;48.550;8.822;2022-12-18T03:36:07;19.33;;;9.93;;
8419;SDS011;4247;48.550;8.822;2022-12-18T03:38:34;23.80;;;10.33;;
8419;SDS011;4247;48.550;8.822;2022-12-18T03:41:06;22.93;;;13.60;;
8419;SDS011;4247;48.550;8.822;2022-12-18T03:43:41;22.93;;;12.80;;
8419;SDS011;4247;48.550;8.822;2022-12-18T03:46:15;26.63;;;10.60;;
8419;SDS011;4247;48.550;8.822;2022-12-18T03:48:52;26.13;;;11.40;;
8419;SDS011;4247;48.550;8.822;2022-12-18T03:51:26;22.83;;;11.43;;
8419;SDS011;4247;48.550;8.822;2022-12-18T03:54:01;24.80;;;10.13;;
8419;SDS011;4247;48.550;8.822;2022-12-18T03:56:34;20.77;;;10.63;;
8419;SDS011;4247;48.550;8.822;2022-12-18T03:59:07;27.47;;;8.87;;
8419;SDS011;4247;48.550;8.822;2022-12-18T04:01:38;28.60;;;11.63;;
8419;SDS011;4247;48.550;8.822;2022-12-18T04:04:08;25.30;;;10.93;;
8419;SDS011;4247;48.550;8.822;2022-12-18T04:06:39;20.83;;;9.23;;
8419;SDS011;4247;48.550;8.822;2022-12-18T04:09:07;25.47;;;12.17;;
8419;SDS011;4247;48.550;8.822;2022-12-18T04:11:34;27.30;;;10.90;;
8419;SDS011;4247;48.550;8.822;2022-12-18T04:14:01;26.03;;;10.60;;
8419;SDS011;4247;48.550;8.822;2022-12-18T04:16:30;26.80;;;9.97;;
8419;SDS011;4247;48.550;8.822;2022-12-18T04:19:00;18.30;;;10.67;;
8419;SDS011;4247;48.550;8.822;2022-12-18T04:21:27;29.33;;;10.77;;
8419;SDS011;4247;48.550;8.822;2022-12-18T04:23:54;21.03;;;9.93;;
8419;SDS011;4247;48.550;8.822;2022-12-18T04:26:21;31.87;;;13.10;;
8419;SDS011;4247;48.550;8.822;2022-12-18T04:28:47;32.07;;;12.30;;
8419;SDS011;4247;48.550;8.822;2022-12-18T04:31:14;32.77;;;13.47;;
8419;SDS011;4247;48.550;8.822;2022-12-18T04:33:43;23.13;;;10.40;;
8419;SDS011;4247;48.550;8.822;2022-12-18T04:36:10;41.57;;;13.53;;
8419;SDS011;4247;48.550;8.822;2022-12-18T04:38:37;31.00;;;11.67;;
8419;SDS011;4247;48.550;8.822;2022-12-18T04:41:04;49.43;;;14.00;;
8419;SDS011;4247;48.550;8.822;2022-12-18T04:43:31;24.50;;;12.80;;
8419;SDS011;4247;48.550;8.822;2022-12-18T04:46:01;27.77;;;14.63;;
8419;SDS011;4247;48.550;8.822;2022-12-18T04:48:32;27.40;;;12.43;;
8419;SDS011;4247;48.550;8.822;2022-12-18T04:51:01;29.07;;;13.07;;
8419;SDS011;4247;48.550;8.822;2022-12-18T04:53:31;34.87;;;13.50;;
8419;SDS011;4247;48.550;8.822;2022-12-18T04:56:02;41.27;;;13.90;;
8419;SDS011;4247;48.550;8.822;2022-12-18T04:58:30;49.13;;;14.57;;
8419;SDS011;4247;48.550;8.822;2022-12-18T05:00:57;49.67;;;17.73;;
8419;SDS011;4247;48.550;8.822;2022-12-18T05:03:27;45.73;;;16.83;;
8419;SDS011;4247;48.550;8.822;2022-12-18T05:05:54;42.47;;;17.57;;
8419;SDS011;4247;48.550;8.822;2022-12-18T05:08:22;42.73;;;16.30;;
8419;SDS011;4247;48.550;8.822;2022-12-18T05:10:50;51.20;;;15.20;;
8419;SDS011;4247;48.550;8.822;2022-12-18T05:13:25;31.13;;;14.03;;
8419;SDS011;4247;48.550;8.822;2022-12-18T05:15:52;33.73;;;13.27;;
8419;SDS011;4247;48.550;8.822;2022-12-18T05:18:22;32.57;;;12.87;;
8419;SDS011;4247;48.550;8.822;2022-12-18T05:20:50;32.27;;;13.93;;
8419;SDS011;4247;48.550;8.822;2022-12-18T05:23:17;31.67;;;12.57;;
8419;SDS011;4247;48.550;8.822;2022-12-18T05:25:50;30.00;;;11.07;;
8419;SDS011;4247;48.550;8.822;2022-12-18T05:28:17;25.93;;;10.90;;
8419;SDS011;4247;48.550;8.822;2022-12-18T05:30:46;24.97;;;11.63;;
8419;SDS011;4247;48.550;8.822;2022-12-18T05:33:17;25.63;;;11.03;;
8419;SDS011;4247;48.550;8.822;2022-12-18T05:35:49;23.13;;;10.40;;
8419;SDS011;4247;48.550;8.822;2022-12-18T05:38:17;24.23;;;9.17;;
8419;SDS011;4247;48.550;8.822;2022-12-18T05:40:44;31.67;;;11.63;;
8419;SDS011;4247;48.550;8.822;2022-12-18T05:43:12;19.20;;;9.07;;
8419;SDS011;4247;48.550;8.822;2022-12-18T05:45:39;35.43;;;12.37;;
8419;SDS011;4247;48.550;8.822;2022-12-18T05:48:07;20.00;;;10.53;;
8419;SDS011;4247;48.550;8.822;2022-12-18T05:50:37;17.50;;;9.70;;
8419;SDS011;4247;48.550;8.822;2022-12-18T05:53:05;30.90;;;12.17;;
8419;SDS011;4247;48.550;8.822;2022-12-18T05:55:33;14.07;;;11.63;;
8419;SDS011;4247;48.550;8.822;2022-12-18T05:58:00;26.67;;;12.27;;
8419;SDS011;4247;48.550;8.822;2022-12-18T06:00:28;37.17;;;12.97;;
8419;SDS011;4247;48.550;8.822;2022-12-18T06:02:59;19.90;;;9.53;;
8419;SDS011;4247;48.550;8.822;2022-12-18T06:05:26;29.13;;;12.23;;
8419;SDS011;4247;48.550;8.822;2022-12-18T06:07:53;19.33;;;9.00;;
8419;SDS011;4247;48.550;8.822;2022-12-18T06:10:23;29.23;;;12.20;;
8419;SDS011;4247;48.550;8.822;2022-12-18T06:12:50;24.73;;;11.30;;
8419;SDS011;4247;48.550;8.822;2022-12-18T06:15:19;32.50;;;12.77;;
8419;SDS011;4247;48.550;8.822;2022-12-18T06:17:47;23.70;;;10.87;;
8419;SDS011;4247;48.550;8.822;2022-12-18T06:20:14;24.07;;;12.50;;
8419;SDS011;4247;48.550;8.822;2022-12-18T06:22:41;36.57;;;13.07;;
8419;SDS011;4247;48.550;8.822;2022-12-18T06:25:08;33.73;;;12.63;;
8419;SDS011;4247;48.550;8.822;2022-12-18T06:27:35;42.60;;;15.00;;
8419;SDS011;4247;48.550;8.822;2022-12-18T06:30:02;30.40;;;12.27;;
8419;SDS011;4247;48.550;8.822;2022-12-18T06:32:30;35.30;;;14.50;;
8419;SDS011;4247;48.550;8.822;2022-12-18T06:34:59;17.60;;;9.53;;
8419;SDS011;4247;48.550;8.822;2022-12-18T06:37:25;21.10;;;11.10;;
8419;SDS011;4247;48.550;8.822;2022-12-18T06:39:53;19.10;;;9.53;;
8419;SDS011;4247;48.550;8.822;2022-12-18T06:42:21;24.10;;;12.27;;
8419;SDS011;4247;48.550;8.822;2022-12-18T06:44:49;30.40;;;10.60;;
8419;SDS011;4247;48.550;8.822;2022-12-18T06:47:19;27.03;;;11.87;;
8419;SDS011;4247;48.550;8.822;2022-12-18T06:49:46;23.63;;;12.17;;
8419;SDS011;4247;48.550;8.822;2022-12-18T06:52:18;34.90;;;15.60;;
8419;SDS011;4247;48.550;8.822;2022-12-18T06:54:44;47.87;;;20.53;;
8419;SDS011;4247;48.550;8.822;2022-12-18T06:57:11;29.83;;;14.57;;
8419;SDS011;4247;48.550;8.822;2022-12-18T06:59:38;23.67;;;10.47;;
8419;SDS011;4247;48.550;8.822;2022-12-18T07:02:05;25.20;;;11.20;;
8419;SDS011;4247;48.550;8.822;2022-12-18T07:04:32;31.70;;;11.90;;
8419;SDS011;4247;48.550;8.822;2022-12-18T07:07:05;37.20;;;11.60;;
8419;SDS011;4247;48.550;8.822;2022-12-18T07:09:36;21.40;;;11.83;;
8419;SDS011;4247;48.550;8.822;2022-12-18T07:12:03;25.90;;;10.73;;
8419;SDS011;4247;48.550;8.822;2022-12-18T07:14:33;20.93;;;10.93;;
8419;SDS011;4247;48.550;8.822;2022-12-18T07:17:00;11.00;;;5.87;;
8419;SDS011;4247;48.550;8.822;2022-12-18T07:19:27;15.53;;;5.63;;
8419;SDS011;4247;48.550;8.822;2022-12-18T07:21:55;12.47;;;7.47;;
8419;SDS011;4247;48.550;8.822;2022-12-18T07:24:22;11.33;;;6.20;;
8419;SDS011;4247;48.550;8.822;2022-12-18T07:26:50;7.17;;;5.50;;
8419;SDS011;4247;48.550;8.822;2022-12-18T07:29:17;13.87;;;6.83;;
8419;SDS011;4247;48.550;8.822;2022-12-18T07:31:44;18.33;;;7.50;;
8419;SDS011;4247;48.550;8.822;2022-12-18T07:34:10;16.33;;;6.70;;
8419;SDS011;4247;48.550;8.822;2022-12-18T07:36:38;16.73;;;7.03;;
8419;SDS011;4247;48.550;8.822;2022-12-18T07:39:05;11.27;;;7.17;;
8419;SDS011;4247;48.550;8.822;2022-12-18T07:41:32;13.57;;;6.30;;
8419;SDS011;4247;48.550;8.822;2022-12-18T07:44:00;18.60;;;6.93;;
8419;SDS011;4247;48.550;8.822;2022-12-18T07:46:29;14.53;;;6.83;;
8419;SDS011;4247;48.550;8.822;2022-12-18T07:48:56;21.57;;;8.80;;
8419;SDS011;4247;48.550;8.822;2022-12-18T07:51:23;27.00;;;10.60;;
8419;SDS011;4247;48.550;8.822;2022-12-18T07:53:53;16.70;;;9.37;;
8419;SDS011;4247;48.550;8.822;2022-12-18T07:56:20;26.53;;;11.67;;
8419;SDS011;4247;48.550;8.822;2022-12-18T07:58:49;24.87;;;10.53;;
8419;SDS011;4247;48.550;8.822;2022-12-18T08:01:18;26.40;;;11.13;;
8419;SDS011;4247;48.550;8.822;2022-12-18T08:03:44;20.63;;;10.50;;
8419;SDS011;4247;48.550;8.822;2022-12-18T08:06:11;17.73;;;7.97;;
8419;SDS011;4247;48.550;8.822;2022-12-18T08:08:38;14.00;;;7.40;;
8419;SDS011;4247;48.550;8.822;2022-12-18T08:11:06;17.30;;;8.90;;
8419;SDS011;4247;48.550;8.822;2022-12-18T08:13:33;20.27;;;9.87;;
8419;SDS011;4247;48.550;8.822;2022-12-18T08:16:03;15.83;;;8.33;;
8419;SDS011;4247;48.550;8.822;2022-12-18T08:18:36;18.27;;;8.40;;
8419;SDS011;4247;48.550;8.822;2022-12-18T08:21:09;18.80;;;10.10;;
8419;SDS011;4247;48.550;8.822;2022-12-18T08:23:37;16.70;;;10.23;;
8419;SDS011;4247;48.550;8.822;2022-12-18T08:26:06;23.07;;;9.93;;
8419;SDS011;4247;48.550;8.822;2022-12-18T08:28:33;15.17;;;9.53;;
8419;SDS011;4247;48.550;8.822;2022-12-18T08:31:00;17.70;;;9.10;;
8419;SDS011;4247;48.550;8.822;2022-12-18T08:33:27;15.30;;;7.30;;
8419;SDS011;4247;48.550;8.822;2022-12-18T08:35:57;16.77;;;8.43;;
8419;SDS011;4247;48.550;8.822;2022-12-18T08:38:24;19.93;;;8.70;;
8419;SDS011;4247;48.550;8.822;2022-12-18T08:40:54;18.43;;;9.83;;
8419;SDS011;4247;48.550;8.822;2022-12-18T08:43:25;17.43;;;8.73;;
8419;SDS011;4247;48.550;8.822;2022-12-18T08:46:10;17.03;;;9.50;;
8419;SDS011;4247;48.550;8.822;2022-12-18T08:48:37;20.70;;;10.73;;
8419;SDS011;4247;48.550;8.822;2022-12-18T08:51:05;18.73;;;11.27;;
8419;SDS011;4247;48.550;8.822;2022-12-18T08:53:35;19.57;;;10.50;;
8419;SDS011;4247;48.550;8.822;2022-12-18T08:56:02;19.30;;;10.43;;
8419;SDS011;4247;48.550;8.822;2022-12-18T08:58:31;15.93;;;7.47;;
8419;SDS011;4247;48.550;8.822;2022-12-18T09:00:59;23.40;;;10.47;;
8419;SDS011;4247;48.550;8.822;2022-12-18T09:03:27;28.23;;;11.70;;
8419;SDS011;4247;48.550;8.822;2022-12-18T09:05:54;16.80;;;9.13;;
8419;SDS011;4247;48.550;8.822;2022-12-18T09:08:22;23.17;;;10.37;;
8419;SDS011;4247;48.550;8.822;2022-12-18T09:10:49;19.37;;;8.23;;
8419;SDS011;4247;48.550;8.822;2022-12-18T09:13:17;14.97;;;8.03;;
8419;SDS011;4247;48.550;8.822;2022-12-18T09:15:44;24.13;;;9.47;;
8419;SDS011;4247;48.550;8.822;2022-12-18T09:18:16;17.27;;;8.40;;
8419;SDS011;4247;48.550;8.822;2022-12-18T09:20:44;19.73;;;9.57;;
8419;SDS011;4247;48.550;8.822;2022-12-18T09:23:17;16.50;;;8.20;;
8419;SDS011;4247;48.550;8.822;2022-12-18T09:25:48;21.50;;;9.83;;
8419;SDS011;4247;48.550;8.822;2022-12-18T09:28:15;17.53;;;9.70;;
8419;SDS011;4247;48.550;8.822;2022-12-18T09:30:44;16.97;;;8.50;;
8419;SDS011;4247;48.550;8.822;2022-12-18T09:33:13;19.30;;;10.67;;
8419;SDS011;4247;48.550;8.822;2022-12-18T09:35:44;17.30;;;10.07;;
8419;SDS011;4247;48.550;8.822;2022-12-18T09:38:12;22.43;;;10.50;;
8419;SDS011;4247;48.550;8.822;2022-12-18T09:40:42;22.70;;;10.37;;
8419;SDS011;4247;48.550;8.822;2022-12-18T09:43:13;26.40;;;10.33;;
8419;SDS011;4247;48.550;8.822;2022-12-18T09:45:44;18.83;;;10.40;;
8419;SDS011;4247;48.550;8.822;2022-12-18T09:48:15;22.20;;;10.03;;
8419;SDS011;4247;48.550;8.822;2022-12-18T09:50:47;19.53;;;10.30;;
8419;SDS011;4247;48.550;8.822;2022-12-18T09:53:15;26.80;;;11.23;;
8419;SDS011;4247;48.550;8.822;2022-12-18T09:55:46;21.77;;;10.13;;
8419;SDS011;4247;48.550;8.822;2022-12-18T09:58:19;23.70;;;12.07;;
8419;SDS011;4247;48.550;8.822;2022-12-18T10:00:51;28.67;;;10.87;;
8419;SDS011;4247;48.550;8.822;2022-12-18T10:03:18;19.50;;;10.73;;
8419;SDS011;4247;48.550;8.822;2022-12-18T10:05:47;23.67;;;12.63;;
8419;SDS011;4247;48.550;8.822;2022-12-18T10:08:25;28.80;;;13.77;;
8419;SDS011;4247;48.550;8.822;2022-12-18T10:11:09;31.27;;;12.47;;
8419;SDS011;4247;48.550;8.822;2022-12-18T10:13:49;26.47;;;13.23;;
8419;SDS011;4247;48.550;8.822;2022-12-18T10:16:21;25.83;;;10.57;;
8419;SDS011;4247;48.550;8.822;2022-12-18T10:18:59;17.23;;;11.13;;
8419;SDS011;4247;48.550;8.822;2022-12-18T10:21:37;30.10;;;12.33;;
8419;SDS011;4247;48.550;8.822;2022-12-18T10:24:12;28.30;;;12.90;;
8419;SDS011;4247;48.550;8.822;2022-12-18T10:26:50;34.60;;;12.87;;
8419;SDS011;4247;48.550;8.822;2022-12-18T10:29:24;25.47;;;11.67;;
8419;SDS011;4247;48.550;8.822;2022-12-18T10:31:51;22.73;;;11.77;;
8419;SDS011;4247;48.550;8.822;2022-12-18T10:34:18;25.90;;;13.80;;
8419;SDS011;4247;48.550;8.822;2022-12-18T10:36:45;22.50;;;11.27;;
8419;SDS011;4247;48.550;8.822;2022-12-18T10:39:15;36.37;;;14.63;;
8419;SDS011;4247;48.550;8.822;2022-12-18T10:41:46;25.97;;;10.67;;
8419;SDS011;4247;48.550;8.822;2022-12-18T10:44:16;33.40;;;14.30;;
8419;SDS011;4247;48.550;8.822;2022-12-18T10:46:49;32.67;;;15.93;;
8419;SDS011;4247;48.550;8.822;2022-12-18T10:49:22;28.13;;;12.30;;
8419;SDS011;4247;48.550;8.822;2022-12-18T10:52:03;20.33;;;10.33;;
8419;SDS011;4247;48.550;8.822;2022-12-18T10:54:40;22.60;;;11.27;;
8419;SDS011;4247;48.550;8.822;2022-12-18T10:57:14;24.93;;;13.30;;
8419;SDS011;4247;48.550;8.822;2022-12-18T10:59:51;21.30;;;10.90;;
8419;SDS011;4247;48.550;8.822;2022-12-18T11:02:27;28.60;;;12.97;;
8419;SDS011;4247;48.550;8.822;2022-12-18T11:05:02;31.27;;;13.97;;
8419;SDS011;4247;48.550;8.822;2022-12-18T11:07:48;42.00;;;18.57;;
8419;SDS011;4247;48.550;8.822;2022-12-18T11:10:19;39.00;;;17.00;;
8419;SDS011;4247;48.550;8.822;2022-12-18T11:12:47;38.90;;;17.47;;
8419;SDS011;4247;48.550;8.822;2022-12-18T11:15:19;37.77;;;18.50;;
8419;SDS011;4247;48.550;8.822;2022-12-18T11:17:48;51.53;;;16.53;;
8419;SDS011;4247;48.550;8.822;2022-12-18T11:20:20;30.20;;;13.93;;
8419;SDS011;4247;48.550;8.822;2022-12-18T11:22:57;36.87;;;13.97;;
8419;SDS011;4247;48.550;8.822;2022-12-18T11:25:25;28.80;;;13.07;;
8419;SDS011;4247;48.550;8.822;2022-12-18T11:27:54;28.97;;;14.30;;
8419;SDS011;4247;48.550;8.822;2022-12-18T11:30:25;27.13;;;11.53;;
8419;SDS011;4247;48.550;8.822;2022-12-18T11:32:55;37.20;;;14.00;;
8419;SDS011;4247;48.550;8.822;2022-12-18T11:35:33;31.30;;;13.97;;
8419;SDS011;4247;48.550;8.822;2022-12-18T11:38:04;31.00;;;14.10;;
8419;SDS011;4247;48.550;8.822;2022-12-18T11:40:40;29.57;;;13.80;;
8419;SDS011;4247;48.550;8.822;2022-12-18T11:43:10;29.60;;;15.17;;
8419;SDS011;4247;48.550;8.822;2022-12-18T11:45:45;40.43;;;16.30;;
8419;SDS011;4247;48.550;8.822;2022-12-18T11:48:17;39.73;;;18.80;;
8419;SDS011;4247;48.550;8.822;2022-12-18T11:50:49;47.80;;;22.93;;
8419;SDS011;4247;48.550;8.822;2022-12-18T11:53:21;29.67;;;16.33;;
8419;SDS011;4247;48.550;8.822;2022-12-18T11:55:50;48.03;;;18.73;;
8419;SDS011;4247;48.550;8.822;2022-12-18T11:58:33;36.50;;;16.80;;
8419;SDS011;4247;48.550;8.822;2022-12-18T12:01:15;28.00;;;15.23;;
8419;SDS011;4247;48.550;8.822;2022-12-18T12:04:07;35.37;;;15.03;;
8419;SDS011;4247;48.550;8.822;2022-12-18T12:07:00;33.93;;;15.83;;
8419;SDS011;4247;48.550;8.822;2022-12-18T12:09:33;33.37;;;15.43;;
8419;SDS011;4247;48.550;8.822;2022-12-18T12:12:13;38.50;;;16.97;;
8419;SDS011;4247;48.550;8.822;2022-12-18T12:14:52;37.00;;;16.07;;
8419;SDS011;4247;48.550;8.822;2022-12-18T12:17:32;46.67;;;19.10;;
8419;SDS011;4247;48.550;8.822;2022-12-18T12:20:06;35.57;;;18.70;;
8419;SDS011;4247;48.550;8.822;2022-12-18T12:22:44;41.53;;;18.07;;
8419;SDS011;4247;48.550;8.822;2022-12-18T12:25:20;38.90;;;17.37;;
8419;SDS011;4247;48.550;8.822;2022-12-18T12:27:57;30.70;;;18.27;;
8419;SDS011;4247;48.550;8.822;2022-12-18T12:30:38;38.23;;;15.87;;
8419;SDS011;4247;48.550;8.822;2022-12-18T12:33:17;28.20;;;14.57;;
8419;SDS011;4247;48.550;8.822;2022-12-18T12:35:58;34.43;;;14.30;;
8419;SDS011;4247;48.550;8.822;2022-12-18T12:38:30;26.90;;;13.30;;
8419;SDS011;4247;48.550;8.822;2022-12-18T12:41:05;33.23;;;15.27;;
8419;SDS011;4247;48.550;8.822;2022-12-18T12:43:57;25.00;;;13.17;;
8419;SDS011;4247;48.550;8.822;2022-12-18T12:46:26;31.60;;;16.13;;
8419;SDS011;4247;48.550;8.822;2022-12-18T12:48:55;30.63;;;15.60;;
8419;SDS011;4247;48.550;8.822;2022-12-18T12:51:27;34.23;;;15.53;;
8419;SDS011;4247;48.550;8.822;2022-12-18T12:53:57;26.43;;;16.13;;
8419;SDS011;4247;48.550;8.822;2022-12-18T12:56:27;26.23;;;15.23;;
8419;SDS011;4247;48.550;8.822;2022-12-18T12:59:09;27.97;;;14.43;;
8419;SDS011;4247;48.550;8.822;2022-12-18T13:01:47;30.60;;;15.07;;
8419;SDS011;4247;48.550;8.822;2022-12-18T13:04:23;44.40;;;15.77;;
8419;SDS011;4247;48.550;8.822;2022-12-18T13:07:03;34.93;;;14.57;;
8419;SDS011;4247;48.550;8.822;2022-12-18T13:10:10;26.53;;;12.90;;
8419;SDS011;4247;48.550;8.822;2022-12-18T13:12:52;28.83;;;13.97;;
8419;SDS011;4247;48.550;8.822;2022-12-18T13:15:22;32.23;;;16.07;;
8419;SDS011;4247;48.550;8.822;2022-12-18T13:18:05;32.07;;;15.70;;
8419;SDS011;4247;48.550;8.822;2022-12-18T13:20:45;34.03;;;16.57;;
8419;SDS011;4247;48.550;8.822;2022-12-18T13:23:25;36.53;;;17.50;;
8419;SDS011;4247;48.550;8.822;2022-12-18T13:26:00;45.23;;;16.93;;
8419;SDS011;4247;48.550;8.822;2022-12-18T13:28:58;30.10;;;15.87;;
8419;SDS011;4247;48.550;8.822;2022-12-18T13:34:35;32.60;;;15.20;;
8419;SDS011;4247;48.550;8.822;2022-12-18T13:43:35;34.33;;;15.90;;
8419;SDS011;4247;48.550;8.822;2022-12-18T13:46:18;34.60;;;14.63;;
8419;SDS011;4247;48.550;8.822;2022-12-18T13:48:51;35.03;;;15.10;;
8419;SDS011;4247;48.550;8.822;2022-12-18T13:51:23;29.23;;;14.53;;
8419;SDS011;4247;48.550;8.822;2022-12-18T13:53:52;26.10;;;13.27;;
8419;SDS011;4247;48.550;8.822;2022-12-18T13:56:22;61.57;;;28.70;;
8419;SDS011;4247;48.550;8.822;2022-12-18T13:59:09;42.67;;;20.60;;
8419;SDS011;4247;48.550;8.822;2022-12-18T14:01:45;65.60;;;32.00;;
8419;SDS011;4247;48.550;8.822;2022-12-18T14:04:18;46.43;;;24.73;;
8419;SDS011;4247;48.550;8.822;2022-12-18T14:06:52;44.07;;;17.27;;
8419;SDS011;4247;48.550;8.822;2022-12-18T14:09:24;26.23;;;14.27;;
8419;SDS011;4247;48.550;8.822;2022-12-18T14:11:52;28.27;;;15.17;;
8419;SDS011;4247;48.550;8.822;2022-12-18T14:14:43;33.03;;;16.10;;
8419;SDS011;4247;48.550;8.822;2022-12-18T14:17:14;32.43;;;14.87;;
8419;SDS011;4247;48.550;8.822;2022-12-18T14:19:42;32.40;;;15.87;;
8419;SDS011;4247;48.550;8.822;2022-12-18T14:22:17;23.80;;;13.83;;
8419;SDS011;4247;48.550;8.822;2022-12-18T14:24:46;27.07;;;15.33;;
8419;SDS011;4247;48.550;8.822;2022-12-18T14:27:21;44.07;;;21.90;;
8419;SDS011;4247;48.550;8.822;2022-12-18T14:29:50;33.20;;;14.73;;
8419;SDS011;4247;48.550;8.822;2022-12-18T14:32:18;36.90;;;18.37;;
8419;SDS011;4247;48.550;8.822;2022-12-18T14:34:49;28.30;;;15.03;;
8419;SDS011;4247;48.550;8.822;2022-12-18T14:37:21;34.47;;;16.30;;
8419;SDS011;4247;48.550;8.822;2022-12-18T14:39:53;24.77;;;14.73;;
8419;SDS011;4247;48.550;8.822;2022-12-18T14:42:23;29.30;;;14.03;;
8419;SDS011;4247;48.550;8.822;2022-12-18T14:48:05;29.77;;;15.87;;
8419;SDS011;4247;48.550;8.822;2022-12-18T14:50:37;36.97;;;17.33;;
8419;SDS011;4247;48.550;8.822;2022-12-18T14:53:04;34.33;;;16.73;;
8419;SDS011;4247;48.550;8.822;2022-12-18T14:55:33;41.30;;;18.63;;
8419;SDS011;4247;48.550;8.822;2022-12-18T14:58:00;41.53;;;19.80;;
8419;SDS011;4247;48.550;8.822;2022-12-18T15:00:28;52.37;;;26.60;;
8419;SDS011;4247;48.550;8.822;2022-12-18T15:02:56;38.70;;;22.10;;
8419;SDS011;4247;48.550;8.822;2022-12-18T15:05:26;42.67;;;21.43;;
8419;SDS011;4247;48.550;8.822;2022-12-18T15:08:00;43.07;;;20.63;;
8419;SDS011;4247;48.550;8.822;2022-12-18T15:10:29;44.17;;;22.40;;
8419;SDS011;4247;48.550;8.822;2022-12-18T15:13:07;38.87;;;21.10;;
8419;SDS011;4247;48.550;8.822;2022-12-18T15:15:47;42.20;;;22.63;;
8419;SDS011;4247;48.550;8.822;2022-12-18T15:18:19;55.83;;;27.97;;
8419;SDS011;4247;48.550;8.822;2022-12-18T15:20:50;56.13;;;25.43;;
8419;SDS011;4247;48.550;8.822;2022-12-18T15:23:20;39.73;;;21.27;;
8419;SDS011;4247;48.550;8.822;2022-12-18T15:25:55;35.37;;;18.27;;
8419;SDS011;4247;48.550;8.822;2022-12-18T15:28:27;35.00;;;17.10;;